Terminal Aerodrome Forecast
Issued by NWS Corpus Christi, TX

Home | Current Version | Previous Version | Text Only | Print | Product List | Glossary On
Versions: 1 2 3 4 5 6 7 8 9 10 11 12 13 14 15
964
FTUS44 KCRP 200551 CCA
TAFCRP
TAF COR
KCRP 200551Z 2006/2106 09010KT P6SM VCSH SCT025 BKN050
      TEMPO 2006/2007 BKN017
     FM201100 18003KT 6SM BR MIFG SCT015 SCT025
     FM201300 18006KT P6SM SCT025
     FM201700 14011G17KT P6SM FEW030=

USA.gov is the U.S. government's official web portal to all federal, state and local government web resources and services.